Time;durP1;ratioP1;P1;durP2;ratioP2;P2;SDS_P1;SDS_P2;PMS_P1;PMS_P2;Temp;Humidity;BMP_temperature;BMP_pressure;BME280_temperature;BME280_humidity;BME280_pressure;Samples;Min_cycle;Max_cycle;Signal;HPM_P1;HPM_P2
2021/04/25 00:00:50;;;;;;;8.93;5.43;;;;;;;2.74;74.89;93353.53;2106401;28;20024;-86
2021/04/25 00:01:50;;;;;;;7.28;5.40;;;;;;;2.79;74.10;93350.56;2114804;28;20034;-86
2021/04/25 00:02:51;;;;;;;9.15;5.53;;;;;;;2.85;73.65;93338.53;2098081;28;20113;-85
2021/04/25 00:03:51;;;;;;;7.18;5.30;;;;;;;2.71;74.29;93343.66;2097662;28;20032;-86
2021/04/25 00:04:51;;;;;;;7.60;5.32;;;;;;;2.69;74.81;93340.66;2091324;28;20549;-85
2021/04/25 00:05:52;;;;;;;7.57;5.43;;;;;;;2.66;75.27;93346.63;2089636;28;20414;-84
2021/04/25 00:06:53;;;;;;;9.77;5.88;;;;;;;2.59;73.69;93342.03;2097643;28;20032;-85
2021/04/25 00:07:53;;;;;;;8.65;5.70;;;;;;;2.53;74.70;93344.22;2104012;28;20028;-86
2021/04/25 00:08:54;;;;;;;11.85;5.88;;;;;;;2.56;75.14;93344.63;2089696;28;20020;-84
2021/04/25 00:09:54;;;;;;;8.85;5.93;;;;;;;2.49;75.13;93342.66;2081632;28;20120;-85
2021/04/25 00:10:55;;;;;;;8.35;5.53;;;;;;;2.59;74.93;93343.91;2081393;28;20025;-84
2021/04/25 00:11:55;;;;;;;9.07;5.88;;;;;;;2.49;74.65;93338.13;2089839;28;20039;-86
2021/04/25 00:12:56;;;;;;;8.95;5.93;;;;;;;2.56;75.47;93332.19;2087128;28;20039;-85
2021/04/25 00:13:56;;;;;;;10.70;6.25;;;;;;;2.47;75.45;93335.13;2097988;28;20115;-85
2021/04/25 00:14:56;;;;;;;8.20;5.88;;;;;;;2.44;75.72;93333.19;2089764;28;20020;-85
2021/04/25 00:15:57;;;;;;;11.10;5.45;;;;;;;2.44;75.52;93340.34;2089592;28;20025;-86
2021/04/25 00:16:58;;;;;;;9.07;5.85;;;;;;;2.39;74.67;93338.78;2086914;28;20025;-84
2021/04/25 00:17:59;;;;;;;8.90;5.53;;;;;;;2.38;75.62;93336.50;2097961;28;20028;-86
2021/04/25 00:19:00;;;;;;;9.05;5.72;;;;;;;2.37;75.98;93334.97;2097476;28;20032;-86
2021/04/25 00:20:00;;;;;;;10.90;6.03;;;;;;;2.39;75.65;93328.22;2089696;28;20025;-86
2021/04/25 00:21:01;;;;;;;7.93;5.60;;;;;;;2.42;75.66;93337.31;2097956;28;20139;-86
2021/04/25 00:22:01;;;;;;;8.80;5.18;;;;;;;2.38;75.90;93331.22;2082655;28;20565;-85
2021/04/25 00:23:02;;;;;;;10.80;6.13;;;;;;;2.34;74.83;93336.47;2089506;28;20412;-85
2021/04/25 00:24:03;;;;;;;7.75;5.72;;;;;;;2.32;75.99;93338.69;2085473;28;20466;-85
2021/04/25 00:25:06;;;;;;;10.95;5.68;;;;;;;2.24;76.65;93340.47;2089536;28;20017;-86
2021/04/25 00:26:06;;;;;;;9.60;5.80;;;;;;;2.26;74.93;93338.22;2081806;28;20053;-86
2021/04/25 00:27:07;;;;;;;12.10;6.68;;;;;;;2.23;75.55;93340.81;2081780;28;20466;-85
2021/04/25 00:28:07;;;;;;;10.55;6.20;;;;;;;2.26;75.79;93337.47;2097742;28;20028;-86
2021/04/25 00:29:08;;;;;;;10.50;5.85;;;;;;;2.23;75.23;93335.53;2097782;28;20028;-86
2021/04/25 00:30:11;;;;;;;10.18;5.88;;;;;;;2.23;75.68;93335.53;2097925;28;20066;-85
2021/04/25 00:31:12;;;;;;;9.30;5.97;;;;;;;2.25;75.79;93331.44;2089313;28;20036;-85
2021/04/25 00:32:13;;;;;;;6.63;5.47;;;;;;;2.24;75.85;93334.44;2086422;28;20386;-84
2021/04/25 00:33:13;;;;;;;10.32;5.50;;;;;;;2.23;75.93;93331.03;2089580;28;20025;-85
2021/04/25 00:34:14;;;;;;;6.78;5.65;;;;;;;2.22;75.82;93329.50;2101681;28;20497;-85
2021/04/25 00:35:15;;;;;;;9.27;5.53;;;;;;;2.20;75.85;93331.75;2096423;28;20465;-85
2021/04/25 00:36:16;;;;;;;9.00;6.38;;;;;;;2.24;76.54;93335.22;2089661;28;20020;-85
2021/04/25 00:37:16;;;;;;;9.27;6.10;;;;;;;2.20;76.59;93331.75;2081262;28;20021;-86
2021/04/25 00:38:17;;;;;;;10.45;5.70;;;;;;;2.17;76.90;93334.34;2095123;28;20401;-85
2021/04/25 00:39:18;;;;;;;9.75;6.22;;;;;;;2.15;76.43;93337.34;2088812;28;20107;-85
2021/04/25 00:40:20;;;;;;;9.98;6.97;;;;;;;2.16;76.71;93330.19;2102761;28;20043;-85
2021/04/25 00:41:21;;;;;;;10.88;6.20;;;;;;;2.20;76.17;93323.84;2102719;28;20036;-86
2021/04/25 00:42:21;;;;;;;8.52;6.00;;;;;;;2.19;76.10;93332.09;2090386;28;20116;-86
2021/04/25 00:43:22;;;;;;;7.90;5.57;;;;;;;2.17;75.98;93335.09;2097338;28;20029;-85
2021/04/25 00:44:22;;;;;;;10.77;5.93;;;;;;;2.24;75.85;93337.09;2096873;28;20495;-85
2021/04/25 00:45:23;;;;;;;9.38;6.07;;;;;;;2.12;76.20;93337.31;2088026;28;20021;-84
2021/04/25 00:46:23;;;;;;;9.35;5.57;;;;;;;2.21;76.26;93327.25;2094390;28;20516;-85
2021/04/25 00:47:24;;;;;;;8.23;6.13;;;;;;;2.19;76.43;93330.22;2098865;28;20025;-86
2021/04/25 00:48:24;;;;;;;9.25;5.88;;;;;;;2.16;76.08;93327.56;2102603;28;20032;-85
2021/04/25 00:49:25;;;;;;;8.55;5.70;;;;;;;2.13;75.33;93326.38;2089095;28;20090;-84
2021/04/25 00:50:26;;;;;;;10.70;6.82;;;;;;;2.09;75.81;93333.47;2089478;28;20520;-84
2021/04/25 00:51:26;;;;;;;11.85;6.20;;;;;;;2.11;76.15;93330.47;2089523;28;20029;-85
2021/04/25 00:52:27;;;;;;;10.27;6.55;;;;;;;2.14;75.72;93333.16;2097590;28;20055;-85
2021/04/25 00:53:28;;;;;;;9.73;5.93;;;;;;;2.10;76.35;93331.59;2090743;28;20457;-85
2021/04/25 00:54:28;;;;;;;8.65;5.80;;;;;;;2.12;76.10;93319.59;2097591;28;20017;-85
2021/04/25 00:55:30;;;;;;;9.73;6.15;;;;;;;2.11;75.10;93325.22;2105567;28;20019;-85
2021/04/25 00:56:32;;;;;;;9.65;5.75;;;;;;;2.07;75.52;93327.06;2106008;28;20024;-85
2021/04/25 00:57:33;;;;;;;9.70;5.85;;;;;;;2.10;76.29;93321.81;2097556;28;20028;-85
2021/04/25 00:58:34;;;;;;;7.43;5.40;;;;;;;2.06;75.79;93321.00;2097840;28;20066;-85
2021/04/25 00:59:34;;;;;;;7.50;5.18;;;;;;;2.05;76.17;93321.38;2097537;28;20028;-85
2021/04/25 01:00:35;;;;;;;11.43;5.75;;;;;;;2.02;75.72;93322.88;2097740;28;20073;-85
2021/04/25 01:01:36;;;;;;;9.77;6.47;;;;;;;2.03;75.89;93324.38;2103894;28;20020;-85
2021/04/25 01:02:37;;;;;;;14.13;6.50;;;;;;;2.12;75.94;93322.25;2105993;28;20028;-85
2021/04/25 01:03:37;;;;;;;9.35;5.70;;;;;;;2.14;75.54;93319.22;2114473;28;20050;-84
2021/04/25 01:04:38;;;;;;;8.73;5.95;;;;;;;2.06;75.69;93325.53;2105756;28;20052;-85
2021/04/25 01:05:38;;;;;;;8.27;5.55;;;;;;;2.14;75.87;93324.50;2105666;28;20024;-85
2021/04/25 01:06:39;;;;;;;8.40;5.32;;;;;;;1.95;76.77;93330.66;2105888;28;20127;-85
2021/04/25 01:07:39;;;;;;;8.63;5.60;;;;;;;1.95;77.00;93330.66;2105532;28;20134;-85
2021/04/25 01:08:40;;;;;;;10.30;6.60;;;;;;;1.94;76.29;93331.78;2106084;28;20028;-85
2021/04/25 01:09:41;;;;;;;8.77;6.10;;;;;;;2.01;75.81;93324.72;2105908;28;20023;-85
2021/04/25 01:10:42;;;;;;;9.07;5.72;;;;;;;1.92;76.18;93324.22;2097043;28;20024;-85
2021/04/25 01:11:43;;;;;;;8.38;5.72;;;;;;;1.95;76.55;93328.78;2097518;28;20024;-86
2021/04/25 01:12:44;;;;;;;7.97;5.72;;;;;;;1.84;77.09;93330.50;2109129;28;20016;-85
2021/04/25 01:13:50;;;;;;;9.07;5.72;;;;;;;1.89;76.54;93334.69;2106016;28;20024;-86
2021/04/25 01:14:50;;;;;;;7.75;5.90;;;;;;;1.91;76.55;93333.25;2106408;28;20024;-85
2021/04/25 01:15:51;;;;;;;8.82;5.75;;;;;;;1.90;76.59;93331.72;2095385;28;20020;-84
2021/04/25 01:16:51;;;;;;;7.85;5.88;;;;;;;2.04;75.81;93333.03;2089138;28;20449;-85
2021/04/25 01:17:52;;;;;;;8.05;5.78;;;;;;;1.97;76.33;93334.44;2097289;28;20466;-84
2021/04/25 01:18:52;;;;;;;8.07;6.20;;;;;;;1.87;77.29;93335.06;2088970;28;20021;-85
2021/04/25 01:19:52;;;;;;;11.50;6.07;;;;;;;1.88;76.65;93341.09;2088770;28;20025;-85
2021/04/25 01:20:58;;;;;;;9.25;5.90;;;;;;;1.87;76.28;93335.06;2097342;28;20058;-84
2021/04/25 01:21:59;;;;;;;9.43;5.78;;;;;;;1.91;76.76;93335.13;2098203;28;20485;-85
2021/04/25 01:23:00;;;;;;;10.98;5.65;;;;;;;1.87;76.65;93340.34;2106044;28;20016;-85
2021/04/25 01:24:00;;;;;;;8.93;5.60;;;;;;;1.87;77.42;93340.34;2106257;28;20063;-85
2021/04/25 01:25:01;;;;;;;8.68;4.97;;;;;;;1.92;76.45;93341.91;2097416;28;20416;-85
2021/04/25 01:26:02;;;;;;;10.35;5.75;;;;;;;1.80;77.04;93332.34;2088968;28;20070;-84
2021/04/25 01:27:03;;;;;;;9.02;5.80;;;;;;;1.80;76.71;93334.19;2102586;28;20100;-84
2021/04/25 01:28:03;;;;;;;8.90;6.13;;;;;;;1.84;77.04;93335.75;2097815;28;20048;-84
2021/04/25 01:29:05;;;;;;;10.00;6.00;;;;;;;1.79;77.51;93341.34;2097360;28;20095;-85
2021/04/25 01:30:08;;;;;;;9.23;6.32;;;;;;;1.79;77.31;93335.31;2089233;28;20123;-85
2021/04/25 01:31:09;;;;;;;10.18;5.78;;;;;;;1.85;76.88;93332.03;2081551;28;20040;-85
2021/04/25 01:32:09;;;;;;;8.52;5.57;;;;;;;2.01;76.68;93332.63;2097384;28;20024;-84
2021/04/25 01:33:10;;;;;;;11.13;5.88;;;;;;;1.97;76.40;93334.44;2105731;28;20469;-84
2021/04/25 01:34:11;;;;;;;10.13;5.57;;;;;;;1.94;76.83;93332.53;2097223;28;20408;-85
2021/04/25 01:35:15;;;;;;;9.60;5.50;;;;;;;1.92;76.53;93334.75;2089087;28;20176;-85
2021/04/25 01:36:16;;;;;;;7.43;5.38;;;;;;;1.91;76.68;93329.84;2089953;28;20115;-84
2021/04/25 01:37:16;;;;;;;8.63;5.88;;;;;;;1.79;76.99;93336.06;2089085;28;20466;-85
2021/04/25 01:38:17;;;;;;;7.90;5.70;;;;;;;1.89;76.56;93338.13;2089117;28;20564;-85
2021/04/25 01:39:17;;;;;;;8.40;5.55;;;;;;;1.83;77.46;93331.63;2097034;28;20024;-84
2021/04/25 01:40:19;;;;;;;10.48;5.80;;;;;;;1.85;77.46;93342.56;2090256;28;20084;-84
2021/04/25 01:41:20;;;;;;;9.13;5.30;;;;;;;1.93;77.14;93332.88;2097059;28;20070;-85
2021/04/25 01:42:20;;;;;;;9.68;5.55;;;;;;;1.89;76.96;93334.69;2096968;28;20542;-83
2021/04/25 01:43:21;;;;;;;9.25;5.38;;;;;;;1.89;76.73;93332.84;2105168;28;20448;-84
2021/04/25 01:44:21;;;;;;;10.82;6.00;;;;;;;1.91;76.85;93333.25;2102654;28;20024;-84
2021/04/25 01:45:22;;;;;;;12.45;5.97;;;;;;;1.82;77.26;93332.72;2087635;28;20056;-84
2021/04/25 01:46:22;;;;;;;8.77;5.53;;;;;;;1.88;77.36;93336.56;2085665;28;20028;-85
2021/04/25 01:47:22;;;;;;;7.43;5.70;;;;;;;1.91;77.43;93332.47;2087511;28;20032;-84
2021/04/25 01:48:23;;;;;;;8.77;5.10;;;;;;;1.88;77.52;93333.19;2085396;28;20033;-84
2021/04/25 01:49:24;;;;;;;7.60;5.35;;;;;;;1.91;76.92;93333.25;2088708;28;20112;-85
2021/04/25 01:50:26;;;;;;;7.72;5.47;;;;;;;1.95;76.71;93331.41;2088673;28;20116;-84
2021/04/25 01:51:26;;;;;;;8.13;5.45;;;;;;;2.00;77.30;93332.97;2104133;28;20114;-84
2021/04/25 01:52:27;;;;;;;7.70;5.53;;;;;;;2.00;77.13;93333.75;2101346;28;20043;-84
2021/04/25 01:53:27;;;;;;;8.15;5.15;;;;;;;1.96;77.13;93324.25;2088983;28;20029;-85
2021/04/25 01:54:28;;;;;;;11.95;5.78;;;;;;;2.02;77.05;93330.78;2097210;28;20028;-85
2021/04/25 01:55:33;;;;;;;8.25;5.28;;;;;;;1.94;76.44;93327.28;2088405;28;20488;-85
2021/04/25 01:56:33;;;;;;;8.27;5.45;;;;;;;1.96;76.99;93335.56;2089314;28;20033;-84
2021/04/25 01:57:34;;;;;;;9.43;5.50;;;;;;;1.88;77.05;93330.56;2080620;28;20056;-86
2021/04/25 01:58:34;;;;;;;10.05;6.10;;;;;;;1.93;77.26;93333.66;2089160;28;20028;-84
2021/04/25 01:59:35;;;;;;;7.90;5.03;;;;;;;1.93;77.05;93332.88;2092557;28;20044;-83
2021/04/25 02:00:39;;;;;;;9.43;5.93;;;;;;;1.88;77.48;93320.75;2080734;28;20726;-85
2021/04/25 02:01:39;;;;;;;7.13;5.05;;;;;;;1.88;76.95;93320.00;2096465;28;20542;-84
2021/04/25 02:04:47;;;;;;;11.40;5.78;;;;;;;1.87;77.25;93315.84;2148328;27;20477;-87
2021/04/25 02:05:48;;;;;;;8.38;5.43;;;;;;;1.83;77.52;93321.06;2121603;28;20027;-88
2021/04/25 02:06:48;;;;;;;10.18;6.20;;;;;;;1.80;77.71;93313.91;2113191;28;20055;-83
2021/04/25 02:07:49;;;;;;;8.57;5.38;;;;;;;1.75;77.17;93309.66;2112820;28;20028;-88
2021/04/25 02:08:50;;;;;;;7.10;5.20;;;;;;;1.72;77.49;93307.75;2104842;28;20034;-90
2021/04/25 02:09:50;;;;;;;10.20;6.05;;;;;;;1.70;77.21;93315.25;2113224;28;20412;-86
2021/04/25 02:10:51;;;;;;;7.00;5.32;;;;;;;1.66;77.72;93309.16;2121704;28;20062;-87
2021/04/25 02:11:52;;;;;;;7.10;5.43;;;;;;;1.76;77.30;93313.09;2120849;28;20073;-87
2021/04/25 02:12:54;;;;;;;7.63;4.88;;;;;;;1.69;77.23;93318.25;2104674;28;20066;-89
2021/04/25 02:13:54;;;;;;;11.05;5.75;;;;;;;1.62;77.85;93323.38;2096555;28;20024;-90
2021/04/25 02:14:54;;;;;;;8.80;5.30;;;;;;;1.62;78.34;93320.75;2096299;28;20555;-88
2021/04/25 02:15:55;;;;;;;8.50;5.30;;;;;;;1.57;78.04;93319.19;2096310;28;20067;-87
2021/04/25 02:16:55;;;;;;;7.88;5.18;;;;;;;1.55;78.73;93318.03;2096376;28;20025;-88
2021/04/25 02:17:56;;;;;;;7.80;5.18;;;;;;;1.49;78.60;93312.28;2104703;28;20066;-88
2021/04/25 02:18:56;;;;;;;8.80;5.55;;;;;;;1.52;78.45;93322.13;2104667;28;20425;-85
2021/04/25 02:19:57;;;;;;;7.15;5.15;;;;;;;1.49;78.58;93322.81;2095992;28;20462;-88
2021/04/25 02:20:58;;;;;;;10.75;5.80;;;;;;;1.51;78.73;93321.38;2096293;28;20028;-85
2021/04/25 02:21:58;;;;;;;9.70;5.43;;;;;;;1.45;79.50;93325.41;2105728;28;20424;-86
2021/04/25 02:22:59;;;;;;;7.60;5.30;;;;;;;1.48;78.94;93327.31;2104743;28;20477;-89
2021/04/25 02:23:59;;;;;;;9.10;5.25;;;;;;;1.45;77.97;93322.78;2104435;28;20028;-89
2021/04/25 02:24:59;;;;;;;9.55;5.35;;;;;;;1.36;79.29;93317.00;2121727;28;20072;-84
2021/04/25 02:26:00;;;;;;;6.38;5.35;;;;;;;1.41;79.46;93323.84;2112957;28;20028;-85
2021/04/25 02:27:00;;;;;;;9.45;5.55;;;;;;;1.41;79.04;93321.97;2121417;28;20031;-83
2021/04/25 02:28:01;;;;;;;12.70;5.90;;;;;;;1.42;79.58;93323.47;2096376;28;20416;-87
2021/04/25 02:29:01;;;;;;;10.05;5.45;;;;;;;1.38;79.16;93314.75;2096156;28;20082;-86
2021/04/25 02:30:06;;;;;;;9.20;5.45;;;;;;;1.44;79.51;93317.84;2096118;28;20115;-86
2021/04/25 02:31:06;;;;;;;9.50;5.65;;;;;;;1.39;79.57;93311.00;2105078;28;20122;-89
2021/04/25 02:32:07;;;;;;;8.95;5.47;;;;;;;1.39;79.48;93316.28;2104352;28;20024;-90
2021/04/25 02:33:08;;;;;;;7.28;5.15;;;;;;;1.39;79.26;93312.88;2104545;28;20028;-86
2021/04/25 02:34:08;;;;;;;7.78;5.75;;;;;;;1.38;79.45;93321.91;2104565;28;20020;-85
2021/04/25 02:35:11;;;;;;;10.98;5.70;;;;;;;1.44;79.44;93315.22;2112745;28;20507;-88
2021/04/25 02:36:12;;;;;;;8.13;5.20;;;;;;;1.45;79.33;93317.50;2104716;28;20024;-90
2021/04/25 02:37:12;;;;;;;7.72;5.43;;;;;;;1.45;79.15;93316.75;2104573;28;20113;-89
2021/04/25 02:38:14;;;;;;;10.70;5.43;;;;;;;1.37;79.51;93315.88;2104497;28;20024;-86
2021/04/25 02:39:15;;;;;;;8.50;5.25;;;;;;;1.30;80.32;93313.13;2104729;28;20243;-85
2021/04/25 02:40:20;;;;;;;7.13;5.32;;;;;;;1.28;78.95;93315.34;2104571;28;20127;-87
2021/04/25 02:41:20;;;;;;;7.20;5.22;;;;;;;1.24;79.57;93317.94;2114216;27;20028;-84
2021/04/25 02:42:21;;;;;;;8.32;5.38;;;;;;;1.25;79.45;93322.06;2112871;28;20024;-87
2021/04/25 02:43:21;;;;;;;8.13;5.50;;;;;;;1.20;80.12;93318.97;2096163;28;20028;-87
2021/04/25 02:44:22;;;;;;;7.18;5.43;;;;;;;1.21;80.52;93325.75;2104095;28;20086;-88
2021/04/25 02:45:24;;;;;;;12.25;5.65;;;;;;;1.24;80.09;93323.19;2112871;28;20032;-87
2021/04/25 02:46:25;;;;;;;7.38;5.22;;;;;;;1.11;81.20;93324.47;2112812;28;20582;-86
2021/04/25 02:47:26;;;;;;;8.43;5.32;;;;;;;1.12;80.51;93323.38;2096091;28;20025;-87
2021/04/25 02:48:26;;;;;;;7.75;4.70;;;;;;;1.08;80.73;93319.16;2104499;28;20683;-86
2021/04/25 02:49:27;;;;;;;9.75;5.40;;;;;;;1.16;80.51;93334.72;2112148;28;20024;-87
2021/04/25 02:50:30;;;;;;;9.68;5.45;;;;;;;1.16;80.01;93323.44;2112959;28;20035;-88
2021/04/25 02:51:31;;;;;;;7.90;5.32;;;;;;;1.14;80.35;93329.06;2110802;28;20407;-88
2021/04/25 02:52:31;;;;;;;8.13;4.90;;;;;;;1.05;80.46;93333.00;2104157;28;20032;-87
2021/04/25 02:53:32;;;;;;;7.95;5.47;;;;;;;1.02;80.81;93331.84;2112848;28;20077;-87
2021/04/25 02:54:33;;;;;;;7.35;4.95;;;;;;;1.02;80.99;93331.09;2112398;28;20020;-89
2021/04/25 02:55:35;;;;;;;7.30;5.25;;;;;;;0.96;81.34;93341.13;2095710;28;20431;-88
2021/04/25 02:56:35;;;;;;;6.57;5.35;;;;;;;0.98;80.94;93339.66;2096257;28;20036;-88
2021/04/25 02:57:36;;;;;;;5.90;4.45;;;;;;;0.98;81.64;93331.03;2095970;28;20663;-90
2021/04/25 02:58:36;;;;;;;6.93;5.22;;;;;;;0.99;80.48;93340.44;2096188;28;20034;-86
2021/04/25 02:59:37;;;;;;;7.05;4.80;;;;;;;1.02;81.04;93328.44;2095628;28;20571;-85
2021/04/25 03:00:38;;;;;;;9.00;5.22;;;;;;;0.99;80.99;93333.28;2104378;28;20032;-87
2021/04/25 03:01:38;;;;;;;10.60;4.97;;;;;;;1.08;80.80;93334.94;2113078;28;20024;-86
2021/04/25 03:02:39;;;;;;;7.88;5.03;;;;;;;1.04;80.15;93332.25;2096223;28;20446;-88
2021/04/25 03:03:39;;;;;;;9.00;5.18;;;;;;;0.90;80.81;93332.75;2112735;28;20496;-86
2021/04/25 03:04:39;;;;;;;8.80;4.72;;;;;;;0.84;81.48;93328.13;2108262;28;20123;-86
2021/04/25 03:05:40;;;;;;;6.55;4.97;;;;;;;0.79;81.18;93326.56;2095827;28;20025;-90
2021/04/25 03:06:40;;;;;;;8.82;5.25;;;;;;;0.76;81.37;93321.97;2095715;28;20035;-88
2021/04/25 03:07:41;;;;;;;7.07;4.85;;;;;;;0.81;81.80;93326.19;2086464;28;20110;-89
2021/04/25 03:08:41;;;;;;;8.18;5.00;;;;;;;0.83;82.23;93322.09;2098914;28;20513;-85
2021/04/25 03:09:42;;;;;;;9.13;5.35;;;;;;;0.81;81.67;93319.06;2103432;28;20024;-87
2021/04/25 03:10:42;;;;;;;6.25;4.82;;;;;;;0.80;81.58;93327.31;2095567;28;20102;-86
2021/04/25 03:11:42;;;;;;;7.97;4.82;;;;;;;0.77;80.85;93328.00;2120250;28;20027;-87
2021/04/25 03:12:44;;;;;;;8.75;5.20;;;;;;;0.77;80.83;93320.09;2104019;28;20074;-86
2021/04/25 03:13:45;;;;;;;9.60;5.05;;;;;;;0.81;81.62;93320.94;2104260;28;20123;-88
2021/04/25 03:14:45;;;;;;;8.57;4.82;;;;;;;0.78;81.88;93329.50;2104138;28;20377;-87
2021/04/25 03:15:46;;;;;;;6.80;5.13;;;;;;;0.86;81.91;93324.03;2093428;28;20025;-87
2021/04/25 03:16:46;;;;;;;9.43;5.13;;;;;;;0.84;81.88;93328.91;2094608;28;20032;-87
2021/04/25 03:17:48;;;;;;;8.38;5.13;;;;;;;0.85;81.55;93329.66;2090315;28;20036;-87
2021/04/25 03:18:48;;;;;;;8.40;5.07;;;;;;;0.89;81.00;93328.59;2098634;28;20482;-87
2021/04/25 03:19:49;;;;;;;7.95;4.90;;;;;;;0.84;81.23;93328.91;2090073;28;20025;-83
2021/04/25 03:20:49;;;;;;;11.23;5.45;;;;;;;0.75;81.62;93326.47;2090428;28;20048;-87
2021/04/25 03:21:50;;;;;;;7.18;5.00;;;;;;;0.62;82.24;93329.63;2095227;28;20063;-86
2021/04/25 03:22:50;;;;;;;6.78;5.20;;;;;;;0.66;81.75;93327.78;2107148;28;20031;-87
2021/04/25 03:23:51;;;;;;;9.48;4.93;;;;;;;0.58;82.45;93319.03;2104618;28;20624;-89
2021/04/25 03:24:51;;;;;;;7.15;5.75;;;;;;;0.61;82.05;93314.91;2081928;28;20033;-88
2021/04/25 03:25:52;;;;;;;6.93;4.78;;;;;;;0.66;82.25;93322.53;2081961;28;20116;-84
2021/04/25 03:26:52;;;;;;;6.03;4.72;;;;;;;0.70;83.18;93323.34;2082229;28;20048;-86
2021/04/25 03:27:53;;;;;;;6.22;4.97;;;;;;;0.69;83.55;93316.56;2082020;28;20026;-86
2021/04/25 03:28:53;;;;;;;8.23;5.47;;;;;;;0.73;83.80;93326.06;2090252;28;20774;-86
2021/04/25 03:29:53;;;;;;;7.38;5.30;;;;;;;0.77;82.96;93314.84;2090173;28;20106;-89
2021/04/25 03:30:55;;;;;;;11.40;5.72;;;;;;;0.76;82.35;93319.34;2090315;28;20041;-85
2021/04/25 03:31:55;;;;;;;7.38;5.53;;;;;;;0.74;82.97;93314.41;2096431;28;20897;-86
2021/04/25 03:32:55;;;;;;;7.82;4.85;;;;;;;0.83;82.06;93316.81;2090139;28;20032;-88
2021/04/25 03:33:56;;;;;;;6.38;4.72;;;;;;;0.75;81.30;93312.56;2090048;28;20029;-87
2021/04/25 03:34:56;;;;;;;8.52;5.05;;;;;;;0.66;82.20;93314.63;2106862;28;20063;-86
2021/04/25 03:35:57;;;;;;;7.95;5.18;;;;;;;0.60;82.30;93308.16;2100134;28;20058;-90
2021/04/25 03:36:57;;;;;;;8.30;5.13;;;;;;;0.60;81.98;93314.16;2090222;28;20056;-85
2021/04/25 03:37:58;;;;;;;7.45;5.30;;;;;;;0.51;82.98;93318.88;2090183;28;20025;-83
2021/04/25 03:38:59;;;;;;;6.40;4.63;;;;;;;0.55;83.13;93316.31;2092849;28;20024;-88
2021/04/25 03:40:00;;;;;;;7.35;4.95;;;;;;;0.57;82.59;93319.34;2098621;28;20580;-87
2021/04/25 03:41:00;;;;;;;8.35;5.00;;;;;;;0.57;83.08;93319.34;2090104;28;20029;-86
2021/04/25 03:42:01;;;;;;;7.43;4.80;;;;;;;0.54;82.75;93312.94;2097170;28;20024;-86
2021/04/25 03:43:01;;;;;;;7.68;5.10;;;;;;;0.50;82.28;93320.75;2104472;28;20035;-85
2021/04/25 03:44:02;;;;;;;8.02;4.43;;;;;;;0.51;81.90;93321.50;2091763;28;20427;-87
2021/04/25 03:45:04;;;;;;;8.00;5.25;;;;;;;0.50;82.24;93322.63;2089095;28;20031;-84
2021/04/25 03:46:05;;;;;;;8.23;4.40;;;;;;;0.46;82.14;93316.53;2090072;28;20406;-85
2021/04/25 03:47:06;;;;;;;9.27;5.05;;;;;;;0.41;82.27;93314.19;2091735;28;20025;-87
2021/04/25 03:48:06;;;;;;;8.27;5.03;;;;;;;0.50;81.70;93309.47;2106535;28;20028;-85
2021/04/25 03:49:07;;;;;;;10.02;5.32;;;;;;;0.49;81.76;93315.84;2106534;28;20084;-88
2021/04/25 03:50:08;;;;;;;8.25;5.38;;;;;;;0.44;83.24;93330.03;2098411;28;20726;-86
2021/04/25 03:51:08;;;;;;;6.80;4.60;;;;;;;0.42;82.92;93324.34;2090119;28;20172;-86
2021/04/25 03:52:09;;;;;;;7.78;4.60;;;;;;;0.38;82.70;93326.13;2106902;28;20024;-88
2021/04/25 03:53:10;;;;;;;5.22;4.50;;;;;;;0.37;82.10;93323.88;2106710;28;20032;-88
2021/04/25 03:54:10;;;;;;;8.05;4.60;;;;;;;0.36;83.10;93317.84;2098086;28;20029;-88
2021/04/25 03:55:12;;;;;;;7.20;4.82;;;;;;;0.34;83.22;93319.28;2098439;28;20024;-85
2021/04/25 03:56:12;;;;;;;7.55;4.82;;;;;;;0.31;82.71;93322.59;2098009;28;20501;-85
2021/04/25 03:57:13;;;;;;;7.95;5.47;;;;;;;0.29;82.48;93320.31;2098490;28;20098;-88
2021/04/25 03:58:13;;;;;;;6.10;4.55;;;;;;;0.26;82.52;93318.38;2098332;28;20040;-88
2021/04/25 03:59:14;;;;;;;8.07;4.57;;;;;;;0.15;82.86;93320.03;2098279;28;20024;-87
2021/04/25 04:00:16;;;;;;;8.48;4.68;;;;;;;0.14;82.54;93321.91;2090091;28;20040;-83
2021/04/25 04:01:17;;;;;;;6.28;4.80;;;;;;;0.19;83.29;93323.50;2092704;28;20751;-86
2021/04/25 04:02:17;;;;;;;6.85;4.82;;;;;;;0.21;83.99;93318.66;2098385;28;20119;-87
2021/04/25 04:03:17;;;;;;;7.28;5.10;;;;;;;0.16;84.84;93319.69;2098206;28;20028;-86
2021/04/25 04:04:18;;;;;;;6.63;4.43;;;;;;;0.19;84.60;93326.91;2106371;28;20048;-85
2021/04/25 04:05:18;;;;;;;7.22;4.95;;;;;;;0.19;85.04;93326.91;2115043;28;20031;-87
2021/04/25 04:06:19;;;;;;;7.05;4.70;;;;;;;0.21;84.72;93321.28;2106409;28;20032;-86
2021/04/25 04:07:19;;;;;;;9.40;4.65;;;;;;;0.19;83.70;93321.63;2106645;28;20024;-88
2021/04/25 04:08:20;;;;;;;8.15;4.13;;;;;;;0.17;83.56;93325.72;2106247;28;20158;-87
2021/04/25 04:09:21;;;;;;;10.18;5.05;;;;;;;0.21;83.72;93321.28;2090026;28;20021;-88
2021/04/25 04:10:21;;;;;;;7.32;4.55;;;;;;;0.28;82.88;93320.69;2106665;28;20020;-88
2021/04/25 04:11:22;;;;;;;6.60;4.47;;;;;;;0.23;83.25;93325.09;2106760;28;20055;-88
2021/04/25 04:12:22;;;;;;;7.68;5.05;;;;;;;0.25;83.76;93316.88;2106635;28;20471;-85
2021/04/25 04:13:23;;;;;;;6.78;4.53;;;;;;;0.15;83.60;93320.81;2098202;28;20120;-88
2021/04/25 04:14:23;;;;;;;9.55;4.90;;;;;;;0.18;83.78;93317.50;2090029;28;20048;-87
2021/04/25 04:15:23;;;;;;;5.15;4.38;;;;;;;0.23;83.36;93316.47;2106551;28;20538;-88
2021/04/25 04:16:25;;;;;;;7.68;4.35;;;;;;;0.27;83.62;93316.53;2106601;28;20039;-87
2021/04/25 04:17:26;;;;;;;7.57;4.80;;;;;;;0.16;84.34;93322.31;2106535;28;20465;-87
2021/04/25 04:18:26;;;;;;;7.15;4.47;;;;;;;0.21;84.16;93324.66;2098251;28;20029;-87
2021/04/25 04:19:26;;;;;;;7.88;4.90;;;;;;;0.21;83.74;93321.28;2098254;28;20040;-85
2021/04/25 04:20:28;;;;;;;6.70;4.70;;;;;;;0.17;83.00;93321.22;2097873;28;20032;-85
2021/04/25 04:21:28;;;;;;;5.68;4.57;;;;;;;0.09;83.80;93318.78;2089859;28;20024;-83
2021/04/25 04:22:28;;;;;;;6.75;4.97;;;;;;;0.10;83.78;93322.94;2098276;28;20546;-84
2021/04/25 04:23:29;;;;;;;7.95;4.60;;;;;;;0.16;83.55;93318.94;2098035;28;20032;-89
2021/04/25 04:24:29;;;;;;;8.35;4.90;;;;;;;0.27;83.67;93319.94;2097910;28;20082;-88
2021/04/25 04:25:30;;;;;;;6.32;4.68;;;;;;;0.20;84.00;93330.28;2106390;28;20035;-88
2021/04/25 04:26:31;;;;;;;6.95;4.95;;;;;;;0.23;83.75;93326.97;2098238;28;20025;-88
2021/04/25 04:27:31;;;;;;;6.63;4.70;;;;;;;0.19;84.49;93320.88;2105881;28;20073;-88
2021/04/25 04:28:32;;;;;;;6.72;4.47;;;;;;;0.21;84.01;93329.16;2097890;28;20060;-85
2021/04/25 04:29:33;;;;;;;9.48;5.10;;;;;;;0.19;83.43;93326.91;2106480;28;20051;-86
2021/04/25 04:30:33;;;;;;;6.75;4.93;;;;;;;0.20;83.80;93333.66;2106536;28;20028;-86
2021/04/25 04:31:34;;;;;;;7.03;4.43;;;;;;;0.12;84.08;93329.38;2098219;28;20024;-87
2021/04/25 04:32:34;;;;;;;7.35;4.82;;;;;;;0.21;83.74;93331.81;2097821;28;20488;-89
2021/04/25 04:33:35;;;;;;;6.40;4.53;;;;;;;0.24;83.63;93339.00;2102875;28;20043;-84
2021/04/25 04:34:37;;;;;;;9.40;4.95;;;;;;;0.27;83.48;93333.06;2098245;28;20033;-87
2021/04/25 04:35:37;;;;;;;5.63;4.60;;;;;;;0.20;84.14;93333.66;2097946;28;20118;-85
2021/04/25 04:36:38;;;;;;;6.50;5.00;;;;;;;0.31;83.49;93335.75;2089772;28;20033;-86
2021/04/25 04:37:38;;;;;;;6.97;4.25;;;;;;;0.26;83.55;93331.53;2089779;28;20369;-85
2021/04/25 04:38:38;;;;;;;5.90;4.65;;;;;;;0.18;83.85;93332.50;2089640;28;20029;-88
2021/04/25 04:39:39;;;;;;;6.78;4.40;;;;;;;0.16;84.06;93329.44;2097923;28;20115;-89
2021/04/25 04:40:39;;;;;;;9.07;4.47;;;;;;;0.23;84.66;93330.34;2098067;28;20025;-86
2021/04/25 04:41:40;;;;;;;5.57;4.78;;;;;;;0.22;84.84;93334.09;2098244;28;20036;-87
2021/04/25 04:42:40;;;;;;;7.97;4.72;;;;;;;0.24;85.15;93337.13;2101458;28;20024;-88
2021/04/25 04:43:41;;;;;;;7.38;4.68;;;;;;;0.30;85.04;93331.59;2092776;28;20028;-87
2021/04/25 04:44:41;;;;;;;6.55;4.90;;;;;;;0.22;85.33;93333.31;2088590;28;20032;-86
2021/04/25 04:45:42;;;;;;;7.03;4.97;;;;;;;0.24;84.45;93331.88;2100191;28;20027;-87
2021/04/25 04:46:42;;;;;;;6.90;4.95;;;;;;;0.29;84.59;93332.72;2107350;28;20031;-85
2021/04/25 04:47:45;;;;;;;7.55;4.60;;;;;;;0.18;84.63;93327.25;2098329;28;20111;-89
2021/04/25 04:48:45;;;;;;;5.50;4.20;;;;;;;0.27;84.17;93319.16;2094563;28;20093;-87
2021/04/25 04:49:45;;;;;;;5.97;4.65;;;;;;;0.33;84.56;93317.78;2105793;28;20024;-89
2021/04/25 04:50:46;;;;;;;6.22;4.68;;;;;;;0.29;84.16;93324.81;2093792;28;20474;-87
2021/04/25 04:51:46;;;;;;;7.10;4.72;;;;;;;0.33;83.62;93329.03;2096761;28;20028;-86